Harnell Park, Minnesota
Current Conditions -  °F | °C
As of 5:55 AM on Wednesday 28 Jan 2015 (Local Time) from KDLH Reporting Station
Overcast Overcast  
Wind Chill: -11°   Ceiling: 600
Heat Index: -5°   Visibility: 7mi
Dew Point: -7°   Wind: 10mph
Humidity: 85%   Direction: 140°SE
Pressure: 29.99"   Gusts: NA
Location:  46.8859°N, 92.4258°W
Report Text: KDLH 281155Z 14009KT 7SM OVC006 M05/M07 A2999 RMK AO2 SLP182 T10501072 11028 21050 58010
Loading
Personal Weather Stations






























Interactive Weather Map New forecast layout! Learn more

10-Day Weather Forecast

Advertisements
Track Severe Weather on mobile